createdAt,value
2024-02-19T00:01:52.995Z,41.75
2024-02-19T00:04:39.918Z,39.63
2024-02-19T00:07:13.030Z,38.80
2024-02-19T00:09:59.859Z,38.10
2024-02-19T00:12:39.931Z,39.00
2024-02-19T00:15:33.879Z,38.40
2024-02-19T00:18:20.904Z,41.28
2024-02-19T00:21:00.846Z,43.95
2024-02-19T00:23:54.809Z,35.58
2024-02-19T00:26:48.837Z,35.42
2024-02-19T00:29:35.835Z,32.25
2024-02-19T00:32:08.980Z,32.00
2024-02-19T00:34:55.840Z,34.00
2024-02-19T00:37:28.950Z,36.45
2024-02-19T00:40:15.875Z,29.75
2024-02-19T00:42:49.012Z,37.95
2024-02-19T00:45:35.864Z,32.47
2024-02-19T00:48:08.970Z,35.70
2024-02-19T00:50:56.842Z,31.85
2024-02-19T00:53:29.938Z,34.65
2024-02-19T00:56:16.841Z,34.17
2024-02-19T00:58:49.931Z,43.05
2024-02-19T01:01:36.954Z,32.53
2024-02-19T01:04:16.898Z,29.88
2024-02-19T01:07:03.918Z,34.20
2024-02-19T01:09:57.867Z,31.95
2024-02-19T01:12:51.911Z,34.70
2024-02-19T01:15:38.900Z,32.83
2024-02-19T01:18:12.038Z,37.30
2024-02-19T01:20:58.855Z,35.15
2024-02-19T01:23:32.036Z,38.38
2024-02-19T01:26:18.842Z,36.28
2024-02-19T01:28:52.030Z,37.63
2024-02-19T01:31:43.840Z,42.08
2024-02-19T01:34:23.912Z,37.85
2024-02-19T01:37:12.902Z,34.92
2024-02-19T01:39:52.870Z,38.53
2024-02-19T01:42:39.896Z,45.50
2024-02-19T01:45:35.932Z,36.33
2024-02-19T01:48:23.844Z,43.42
2024-02-19T01:51:03.865Z,45.58
2024-02-19T01:53:51.919Z,46.67
2024-02-19T01:56:26.006Z,45.45
2024-02-19T01:59:14.869Z,36.45
2024-02-19T02:01:50.109Z,36.22
2024-02-19T02:04:36.870Z,37.58
2024-02-19T02:07:11.057Z,40.05
2024-02-19T02:09:57.896Z,38.80
2024-02-19T02:12:31.001Z,37.47
2024-02-19T02:15:17.894Z,39.65
2024-02-19T02:17:51.218Z,40.92
2024-02-19T02:20:38.839Z,44.75
2024-02-19T02:23:18.867Z,41.83
2024-02-19T02:26:05.872Z,38.97
2024-02-19T02:28:38.979Z,34.13
2024-02-19T02:31:26.897Z,42.55
2024-02-19T02:34:06.993Z,46.20
2024-02-19T02:37:00.924Z,40.20
2024-02-19T02:39:47.892Z,41.45
2024-02-19T02:42:20.970Z,39.97
2024-02-19T02:45:07.884Z,47.55
2024-02-19T02:47:41.303Z,43.33
2024-02-19T02:50:27.865Z,43.65
2024-02-19T02:53:07.860Z,45.72
2024-02-19T02:55:54.899Z,47.38
2024-02-19T02:58:28.025Z,45.85
2024-02-19T03:01:14.960Z,48.90
2024-02-19T03:03:48.044Z,45.78
2024-02-19T03:06:34.912Z,52.25
2024-02-19T03:09:28.871Z,47.10
2024-02-19T03:12:22.853Z,48.03
2024-02-19T03:15:11.880Z,44.65
2024-02-19T03:17:44.975Z,53.63
2024-02-19T03:20:31.894Z,40.67
2024-02-19T03:23:05.033Z,42.70
2024-02-19T03:25:52.865Z,52.17
2024-02-19T03:28:26.188Z,45.83
2024-02-19T03:31:12.892Z,44.80
2024-02-19T03:33:54.033Z,41.72
2024-02-19T03:36:40.905Z,41.85
2024-02-19T03:39:20.874Z,44.83
2024-02-19T03:42:08.892Z,45.75
2024-02-19T03:44:48.877Z,41.05
2024-02-19T03:47:42.930Z,46.55
2024-02-19T03:50:30.876Z,47.83
2024-02-19T03:53:03.989Z,48.33
2024-02-19T03:55:50.896Z,51.13
2024-02-19T03:58:30.886Z,50.10
2024-02-19T04:01:17.988Z,47.35
2024-02-19T04:03:51.039Z,54.22
2024-02-19T04:06:38.008Z,51.05
2024-02-19T04:09:11.006Z,43.88
2024-02-19T04:11:57.929Z,50.05
2024-02-19T04:14:31.003Z,39.58
2024-02-19T04:17:17.886Z,45.85
2024-02-19T04:19:50.993Z,48.70
2024-02-19T04:22:37.877Z,45.63
2024-02-19T04:25:11.068Z,61.55
2024-02-19T04:27:57.946Z,71.45
2024-02-19T04:30:30.998Z,55.38
2024-02-19T04:33:18.010Z,59.10
2024-02-19T04:35:51.070Z,62.95
2024-02-19T04:38:37.947Z,54.53
2024-02-19T04:41:11.041Z,48.17
2024-02-19T04:43:57.891Z,43.40
2024-02-19T04:46:31.051Z,69.35
2024-02-19T04:49:17.989Z,43.53
2024-02-19T04:51:51.039Z,49.80
2024-02-19T04:54:37.961Z,47.15
2024-02-19T04:57:12.004Z,46.47
2024-02-19T04:59:58.920Z,48.55
2024-02-19T05:02:38.898Z,49.05
2024-02-19T05:05:32.964Z,47.83
2024-02-19T05:08:26.895Z,53.15
2024-02-19T05:11:14.938Z,48.75
2024-02-19T05:13:55.038Z,44.58
2024-02-19T05:16:34.902Z,47.50
2024-02-19T05:19:15.233Z,45.00
2024-02-19T05:21:55.086Z,40.90
2024-02-19T05:24:41.946Z,38.85
2024-02-19T05:27:21.916Z,42.17
2024-02-19T05:30:08.942Z,47.72
2024-02-19T05:32:48.942Z,42.10
2024-02-19T05:35:29.088Z,36.22
2024-02-19T05:38:08.922Z,43.88
2024-02-19T05:40:49.102Z,36.25
2024-02-19T05:43:28.964Z,41.63
2024-02-19T05:46:15.966Z,41.65
2024-02-19T05:48:56.978Z,52.05
2024-02-19T05:51:37.310Z,46.03
2024-02-19T05:54:16.922Z,41.80
2024-02-19T05:57:03.937Z,56.67
2024-02-19T05:59:43.922Z,56.35
2024-02-19T06:02:24.219Z,58.10
2024-02-19T06:05:07.217Z,62.92
2024-02-19T06:07:53.947Z,67.97
2024-02-19T06:10:27.285Z,58.42
2024-02-19T06:13:14.008Z,58.03
2024-02-19T06:15:47.415Z,55.10
2024-02-19T06:18:34.977Z,51.42
2024-02-19T06:21:14.922Z,60.72
2024-02-19T06:23:55.945Z,41.38
2024-02-19T06:26:35.953Z,41.83
2024-02-19T06:29:18.048Z,41.22
2024-02-19T06:31:59.959Z,52.78
2024-02-19T06:34:49.078Z,40.13
2024-02-19T06:37:29.013Z,43.20
2024-02-19T06:40:16.004Z,35.30
2024-02-19T06:42:50.898Z,35.42
2024-02-19T06:45:39.016Z,39.25
2024-02-19T06:48:19.240Z,39.85
2024-02-19T06:51:05.948Z,33.80
2024-02-19T06:53:45.951Z,35.63
2024-02-19T06:56:32.956Z,36.55
2024-02-19T06:59:06.300Z,32.10
2024-02-19T07:01:53.152Z,37.15
2024-02-19T07:04:26.392Z,28.30
2024-02-19T07:07:16.978Z,39.13
2024-02-19T07:09:59.034Z,40.03
2024-02-19T07:12:40.016Z,41.20
2024-02-19T07:15:19.965Z,42.92
2024-02-19T07:18:07.353Z,44.80
2024-02-19T07:20:41.006Z,43.67
2024-02-19T07:23:27.986Z,43.22
2024-02-19T07:26:01.403Z,44.15
2024-02-19T07:28:48.051Z,47.83
2024-02-19T07:31:21.394Z,40.53
2024-02-19T07:34:08.094Z,58.55
2024-02-19T07:36:41.373Z,46.63
2024-02-19T07:39:27.979Z,44.45
2024-02-19T07:42:01.661Z,37.03
2024-02-19T07:44:48.014Z,34.63
2024-02-19T07:47:21.411Z,41.25
2024-02-19T07:50:08.209Z,44.42
2024-02-19T07:52:50.962Z,46.58
2024-02-19T07:55:37.974Z,48.75
2024-02-19T07:58:18.056Z,111.72
2024-02-19T08:00:58.900Z,61.40
2024-02-19T08:03:41.139Z,52.17
2024-02-19T08:06:21.157Z,259.20
2024-02-19T08:09:01.022Z,279.95
2024-02-19T08:11:41.215Z,120.70
2024-02-19T08:14:21.125Z,62.70
2024-02-19T08:17:01.082Z,48.55
2024-02-19T08:19:41.003Z,42.53
2024-02-19T08:22:21.210Z,47.30
2024-02-19T08:25:01.015Z,47.90
2024-02-19T08:27:48.061Z,40.03
2024-02-19T08:30:22.026Z,46.35
2024-02-19T08:33:09.071Z,41.00
2024-02-19T08:35:42.739Z,43.30
2024-02-19T08:38:29.991Z,45.10
2024-02-19T08:41:10.038Z,46.38
2024-02-19T08:43:56.997Z,45.40
2024-02-19T08:46:30.443Z,43.08
2024-02-19T08:49:18.239Z,42.05
2024-02-19T08:51:58.079Z,37.65
2024-02-19T08:54:38.104Z,42.25
2024-02-19T08:57:18.024Z,44.40
2024-02-19T09:00:05.014Z,40.05
2024-02-19T09:02:39.874Z,48.47
2024-02-19T09:05:28.014Z,50.58
2024-02-19T09:08:01.744Z,44.38
2024-02-19T09:10:49.029Z,56.55
2024-02-19T09:13:47.135Z,52.72
2024-02-19T09:16:34.103Z,60.33
2024-02-19T09:19:10.128Z,48.20
2024-02-19T09:21:57.072Z,61.75
2024-02-19T09:24:30.638Z,41.92
2024-02-19T09:27:17.040Z,41.25
2024-02-19T09:29:57.025Z,51.15
2024-02-19T09:32:44.063Z,42.17
2024-02-19T09:35:17.549Z,39.50
2024-02-19T09:38:04.074Z,49.65
2024-02-19T09:40:47.052Z,38.00
2024-02-19T09:43:40.994Z,38.88
2024-02-19T09:46:30.211Z,48.90
2024-02-19T09:49:15.120Z,49.13
2024-02-19T09:52:04.360Z,66.78
2024-02-19T09:54:38.100Z,68.90
2024-02-19T09:57:29.035Z,71.18
2024-02-19T10:00:05.713Z,83.07
2024-02-19T10:02:53.009Z,79.78
2024-02-19T10:05:33.129Z,69.75
2024-02-19T10:08:27.017Z,68.70
2024-02-19T10:11:21.042Z,63.47
2024-02-19T10:14:08.110Z,52.30
2024-02-19T10:16:41.152Z,49.88
2024-02-19T10:19:28.187Z,53.78
2024-02-19T10:22:08.168Z,53.75
2024-02-19T10:24:49.094Z,47.40
2024-02-19T10:27:29.436Z,42.95
2024-02-19T10:30:10.069Z,45.60
2024-02-19T10:32:50.284Z,50.90
2024-02-19T10:35:31.015Z,46.60
2024-02-19T10:38:13.107Z,45.33
2024-02-19T10:40:53.047Z,58.33
2024-02-19T10:43:33.164Z,51.45
2024-02-19T10:46:13.173Z,53.78
2024-02-19T10:49:02.220Z,49.17
2024-02-19T10:51:36.621Z,45.35
2024-02-19T10:54:24.027Z,41.55
2024-02-19T10:57:08.888Z,46.55
2024-02-19T10:59:56.026Z,45.58
2024-02-19T11:02:37.079Z,42.28
2024-02-19T11:05:18.729Z,39.85
2024-02-19T11:08:00.050Z,44.28
2024-02-19T11:10:58.125Z,39.97
2024-02-19T11:13:38.048Z,41.70
2024-02-19T11:16:34.064Z,52.22
2024-02-19T11:19:14.124Z,49.92
2024-02-19T11:22:19.311Z,42.58
2024-02-19T11:25:00.086Z,53.65
2024-02-19T11:27:54.083Z,50.20
2024-02-19T11:30:48.174Z,45.00
2024-02-19T11:33:42.119Z,50.55
2024-02-19T11:36:29.052Z,48.03
2024-02-19T11:39:09.038Z,47.45
2024-02-19T11:42:03.073Z,40.45
2024-02-19T11:44:58.060Z,35.20
2024-02-19T11:47:46.122Z,43.15
2024-02-19T11:50:23.222Z,40.92
2024-02-19T11:53:12.058Z,36.03
2024-02-19T11:55:53.075Z,37.42
2024-02-19T11:58:47.065Z,39.03
2024-02-19T12:01:34.161Z,39.15
2024-02-19T12:04:10.237Z,41.63
2024-02-19T12:06:57.183Z,36.38
2024-02-19T12:09:37.089Z,38.05
2024-02-19T12:12:25.085Z,38.75
2024-02-19T12:14:58.186Z,32.03
2024-02-19T12:17:48.104Z,35.30
2024-02-19T12:20:22.535Z,33.45
2024-02-19T12:23:09.081Z,33.50
2024-02-19T12:25:49.109Z,30.52
2024-02-19T12:28:29.570Z,31.23
2024-02-19T12:31:16.131Z,34.97
2024-02-19T12:33:50.007Z,32.08
2024-02-19T12:36:37.464Z,33.40
2024-02-19T12:39:18.101Z,32.90
2024-02-19T12:41:58.197Z,31.33
2024-02-19T12:44:38.084Z,31.98
2024-02-19T12:47:25.295Z,33.28
2024-02-19T12:49:59.273Z,28.15
2024-02-19T12:52:46.152Z,33.53
2024-02-19T12:55:26.201Z,29.05
2024-02-19T12:58:13.166Z,34.00
2024-02-19T13:00:46.611Z,32.88
2024-02-19T13:03:33.101Z,27.42
2024-02-19T13:06:11.600Z,31.15
2024-02-19T13:08:58.224Z,30.30
2024-02-19T13:11:31.499Z,34.75
2024-02-19T13:14:18.127Z,34.42
2024-02-19T13:17:09.773Z,30.80
2024-02-19T13:20:00.424Z,33.80
2024-02-19T13:22:41.103Z,34.20
2024-02-19T13:25:21.297Z,31.55
2024-02-19T13:28:01.168Z,32.03
2024-02-19T13:30:48.141Z,34.33
2024-02-19T13:33:42.180Z,33.88
2024-02-19T13:36:36.135Z,30.33
2024-02-19T13:39:31.149Z,35.53
2024-02-19T13:42:25.140Z,32.63
2024-02-19T13:45:17.215Z,29.88
2024-02-19T13:47:50.237Z,36.03
2024-02-19T13:50:37.175Z,32.50
2024-02-19T13:53:12.165Z,31.52
2024-02-19T13:56:00.391Z,31.25
2024-02-19T13:58:35.360Z,36.13
2024-02-19T14:01:22.181Z,32.15
2024-02-19T14:04:02.204Z,32.08
2024-02-19T14:06:56.258Z,31.52
2024-02-19T14:09:50.123Z,36.25
2024-02-19T14:12:44.301Z,37.58
2024-02-19T14:15:34.167Z,35.63
2024-02-19T14:18:07.398Z,36.00
2024-02-19T14:20:54.175Z,35.90
2024-02-19T14:23:29.862Z,37.30
2024-02-19T14:26:18.179Z,34.63
2024-02-19T14:28:51.251Z,36.25
2024-02-19T14:31:38.205Z,39.53
2024-02-19T14:34:26.338Z,38.15
2024-02-19T14:37:00.818Z,36.47
2024-02-19T14:39:48.144Z,35.75
2024-02-19T14:42:29.146Z,37.47
2024-02-19T14:45:16.174Z,35.22
2024-02-19T14:47:56.261Z,34.10
2024-02-19T14:50:36.475Z,39.63
2024-02-19T14:53:16.211Z,42.53
2024-02-19T14:56:03.156Z,45.20
2024-02-19T14:58:36.537Z,43.83
2024-02-19T15:01:23.310Z,44.03
2024-02-19T15:04:03.289Z,38.85
2024-02-19T15:06:43.453Z,39.83
2024-02-19T15:09:24.172Z,50.42
2024-02-19T15:12:18.207Z,44.72
2024-02-19T15:15:05.154Z,45.05
2024-02-19T15:17:45.254Z,47.33
2024-02-19T15:20:39.151Z,47.47
2024-02-19T15:23:33.133Z,44.70
2024-02-19T15:26:22.160Z,40.03
2024-02-19T15:28:55.443Z,37.15
2024-02-19T15:31:42.306Z,36.50
2024-02-19T15:34:15.390Z,46.00
2024-02-19T15:37:03.290Z,61.15
2024-02-19T15:39:43.213Z,48.45
2024-02-19T15:42:48.538Z,40.28
2024-02-19T15:45:35.178Z,39.55
2024-02-19T15:48:08.331Z,112.97
2024-02-19T15:50:55.150Z,61.97
2024-02-19T15:53:29.309Z,49.65
2024-02-19T15:56:16.193Z,45.70
2024-02-19T15:58:49.254Z,40.15
2024-02-19T16:01:36.412Z,43.60
2024-02-19T16:04:17.207Z,36.80
2024-02-19T16:07:04.243Z,42.30
2024-02-19T16:09:44.218Z,37.60
2024-02-19T16:12:38.140Z,38.05
2024-02-19T16:15:32.181Z,37.95
2024-02-19T16:18:26.379Z,39.78
2024-02-19T16:21:13.195Z,55.10
2024-02-19T16:23:54.179Z,46.83
2024-02-19T16:26:41.166Z,53.28
2024-02-19T16:29:14.415Z,52.30
2024-02-19T16:32:01.187Z,50.65
2024-02-19T16:34:34.380Z,46.25
2024-02-19T16:37:21.191Z,50.90
2024-02-19T16:39:54.354Z,48.67
2024-02-19T16:42:43.184Z,56.95
2024-02-19T16:45:23.187Z,61.00
2024-02-19T16:48:19.298Z,55.45
2024-02-19T16:51:13.226Z,66.70
2024-02-19T16:54:00.212Z,68.40
2024-02-19T16:56:43.209Z,63.83
2024-02-19T16:59:30.183Z,57.92
2024-02-19T17:02:10.361Z,55.10
2024-02-19T17:05:04.676Z,51.42
2024-02-19T17:07:45.445Z,43.63
2024-02-19T17:10:25.901Z,47.85
2024-02-19T17:13:13.244Z,44.88
2024-02-19T17:15:53.399Z,47.50
2024-02-19T17:18:33.384Z,55.85
2024-02-19T17:21:13.374Z,68.95
2024-02-19T17:23:54.239Z,64.30
2024-02-19T17:26:36.176Z,78.88
2024-02-19T17:29:16.227Z,71.72
2024-02-19T17:32:03.209Z,71.18
2024-02-19T17:34:58.332Z,66.25
2024-02-19T17:37:46.208Z,73.93
2024-02-19T17:40:19.682Z,93.80
2024-02-19T17:43:07.240Z,80.80
2024-02-19T17:45:54.246Z,76.72
2024-02-19T17:48:35.387Z,64.88
2024-02-19T17:51:20.146Z,55.13
2024-02-19T17:54:02.358Z,47.97
2024-02-19T17:56:43.349Z,50.78
2024-02-19T17:59:23.235Z,49.08
2024-02-19T18:02:11.270Z,62.88
2024-02-19T18:04:47.915Z,70.07
2024-02-19T18:07:38.257Z,69.80
2024-02-19T18:10:25.267Z,64.00
2024-02-19T18:13:21.049Z,58.55
2024-02-19T18:16:08.258Z,60.70
2024-02-19T18:18:49.335Z,54.70
2024-02-19T18:21:43.253Z,50.75
2024-02-19T18:24:37.207Z,47.28
2024-02-19T18:27:24.247Z,47.45
2024-02-19T18:30:04.227Z,51.97
2024-02-19T18:32:58.262Z,45.38
2024-02-19T18:35:48.236Z,69.97
2024-02-19T18:38:35.301Z,70.13
2024-02-19T18:41:15.218Z,68.07
2024-02-19T18:44:04.233Z,72.18
2024-02-19T18:46:44.220Z,87.10
2024-02-19T18:49:26.949Z,96.93
2024-02-19T18:52:09.310Z,92.03
2024-02-19T18:54:56.270Z,88.00
2024-02-19T18:57:30.155Z,84.47
2024-02-19T19:00:18.250Z,81.09
2024-02-19T19:02:58.439Z,83.35
2024-02-19T19:05:47.300Z,97.20
2024-02-19T19:08:20.676Z,91.78
2024-02-19T19:11:07.306Z,87.55
2024-02-19T19:13:48.228Z,98.15
2024-02-19T19:16:28.468Z,90.78
2024-02-19T19:19:11.309Z,85.60
2024-02-19T19:21:52.546Z,92.60
2024-02-19T19:24:32.257Z,84.55
2024-02-19T19:27:19.227Z,83.88
2024-02-19T19:29:59.261Z,72.20
2024-02-19T19:32:39.472Z,73.13
2024-02-19T19:35:21.454Z,72.75
2024-02-19T19:38:08.249Z,69.63
2024-02-19T19:40:48.253Z,78.63
2024-02-19T19:43:28.629Z,74.63
2024-02-19T19:46:08.353Z,72.75
2024-02-19T19:48:48.506Z,66.03
2024-02-19T19:51:28.251Z,63.58
2024-02-19T19:54:15.268Z,63.63
2024-02-19T19:56:48.643Z,63.85
2024-02-19T19:59:36.237Z,67.07
2024-02-19T20:02:16.308Z,71.38
2024-02-19T20:05:04.355Z,64.35
2024-02-19T20:07:37.861Z,77.05
2024-02-19T20:10:25.262Z,80.18
2024-02-19T20:13:19.277Z,94.63
2024-02-19T20:16:13.365Z,82.60
2024-02-19T20:19:00.376Z,85.65
2024-02-19T20:21:40.273Z,84.10
2024-02-19T20:24:27.246Z,84.10
2024-02-19T20:27:08.239Z,100.70
2024-02-19T20:30:03.260Z,92.10
2024-02-19T20:32:50.345Z,86.82
2024-02-19T20:35:23.391Z,88.10
2024-02-19T20:38:12.260Z,93.18
2024-02-19T20:40:54.244Z,91.32
2024-02-19T20:43:41.274Z,93.82
2024-02-19T20:46:14.474Z,91.63
2024-02-19T20:49:01.463Z,94.80
2024-02-19T20:51:34.408Z,98.88
2024-02-19T20:54:21.260Z,94.57
2024-02-19T20:56:56.278Z,87.78
2024-02-19T20:59:44.267Z,90.32
2024-02-19T21:02:17.443Z,145.77
2024-02-19T21:05:04.366Z,135.43
2024-02-19T21:07:37.803Z,93.30
2024-02-19T21:10:32.327Z,105.72
2024-02-19T21:13:26.294Z,96.32
2024-02-19T21:16:14.312Z,90.68
2024-02-19T21:18:48.338Z,106.47
2024-02-19T21:21:35.734Z,100.25
2024-02-19T21:24:09.378Z,97.30
2024-02-19T21:26:58.221Z,101.15
2024-02-19T21:29:33.459Z,102.20
2024-02-19T21:32:20.250Z,96.45
2024-02-19T21:35:01.545Z,94.10
2024-02-19T21:37:48.291Z,87.40
2024-02-19T21:40:21.559Z,101.18
2024-02-19T21:43:08.365Z,120.38
2024-02-19T21:45:48.296Z,99.40
2024-02-19T21:48:42.382Z,86.32
2024-02-19T21:51:37.298Z,75.15
2024-02-19T21:54:24.286Z,72.57
2024-02-19T21:56:57.375Z,70.72
2024-02-19T21:59:45.316Z,66.97
2024-02-19T22:02:18.545Z,72.80
2024-02-19T22:05:05.556Z,71.18
2024-02-19T22:07:40.165Z,72.13
2024-02-19T22:10:42.372Z,71.00
2024-02-19T22:13:36.322Z,67.60
2024-02-19T22:16:23.403Z,60.75
2024-02-19T22:19:03.361Z,65.13
2024-02-19T22:21:53.226Z,64.25
2024-02-19T22:24:33.291Z,60.28
2024-02-19T22:27:27.300Z,62.10
2024-02-19T22:30:21.313Z,60.78
2024-02-19T22:33:15.356Z,50.22
2024-02-19T22:36:02.367Z,54.70
2024-02-19T22:38:35.399Z,63.10
2024-02-19T22:41:22.311Z,67.22
2024-02-19T22:44:02.453Z,62.67
2024-02-19T22:46:42.313Z,53.75
2024-02-19T22:49:23.469Z,51.90
2024-02-19T22:52:03.367Z,51.03
2024-02-19T22:54:43.417Z,49.83
2024-02-19T22:57:25.305Z,50.83
2024-02-19T23:00:23.325Z,49.33
2024-02-19T23:02:56.810Z,50.97
2024-02-19T23:05:43.316Z,54.40
2024-02-19T23:08:16.789Z,54.22
2024-02-19T23:11:03.351Z,48.00
2024-02-19T23:13:36.743Z,51.95
2024-02-19T23:16:23.359Z,48.03
2024-02-19T23:18:56.748Z,50.42
2024-02-19T23:21:44.322Z,45.83
2024-02-19T23:24:24.323Z,46.17
2024-02-19T23:27:04.429Z,46.53
2024-02-19T23:29:44.310Z,47.83
2024-02-19T23:32:24.499Z,48.45
2024-02-19T23:35:06.774Z,47.83
2024-02-19T23:37:53.329Z,43.50
2024-02-19T23:40:27.291Z,45.40
2024-02-19T23:43:14.511Z,46.38
2024-02-19T23:46:08.342Z,45.92
2024-02-19T23:48:55.371Z,44.20
2024-02-19T23:51:28.793Z,45.60
2024-02-19T23:54:18.346Z,44.33
2024-02-19T23:56:51.434Z,45.15
2024-02-19T23:59:38.362Z,46.38
